Pagina principale
METAR-TAF:

METAR-TAF

Aeroporti :

Aeroporto di Matsapha

Manzini, Swaziland

latitudine: 26-32S, longitudine: 031-18E, altezza: 641 m

Osservazione

Il bollettino è stato emesso 1 ora e 13 minuti fa, alle 13:00 UTC
Vento 8 kt da est
Temperature 25°C
Umidità 54%
Pressione 1016 hPa
Visibilità 10 km o più
Nuvoloso ad un'altezza di 3500 ft

METAR: FDMS 211300Z 08008KT 9999 BKN035 25/15 Q1016 NOSIG

Ora: 16:13 (14:13 UTC)

Previsione

Il bollettino è stato emesso 7 ore e 13 minuti fa, alle 07:00 UTC
Previsione valida dal 21 alle 09 UTC al 21 alle 18 UTC
Vento 5 kt da sud
Visibilità 10 km o più
Nuvoloso ad un'altezza di 3500 ft

TAF: FDMS 210700Z 2109/2118 17005KT 9999 BKN035

Osservazioni e previsioni meteorologiche di più di 4000 aeroporti (messaggi METAR e TAF).

Le stazioni disponibili sono rappresentate dai dischi gialli e rossi sulla carta.

Puntare il mouse per vedere il nome della stazione.

Clicca sopra per visualizzare le osservazioni e previsioni meteorologiche.

Per cambiare la mappa : fare clic sui pulsanti verdi con una croce nera per ingrandire, il pulsante verde con un trattino per diminuire, o sulla freccia verde per le mappe adiacenti.


METAR-TAF: